Ever Develop — 3FLF8 — position and weather

sailwx.info

Track history (hours):
 
Tides and Currents Weather Stations Pressure Air Temp Water Temp Dewpoint Dewpoint Depression Visibility Wind Speed Wind Dir Waves Ship Positions

Ever Develop

Last reported at 2016-Jul-16 00:00 UTC. Time now 2016-Jul-26 19:49 UTC.
Position N 27°06' W 132°00'.
Warning: this ship's position is 10 days out of date.

Type: Ship (hazmat cat D). MMSI: 356391000.

Wind from 070 at 16 knots

Waves 0.5 meters (2 feet), 3 second period

Barometer 1020.0 mb
Air temperature 23.0 ° C
Visibility: greater than 10.8 NM
Dewpoint 21.5 ° C
Water temperature 22.0 ° C

Date/timePositionNaut miles runAvg speedWind from/ knotsBaromVisibWave heightAir tempDewpointWater temp
2016-Jul-16 00:00N 27°06' W 132°00'10116.8 070 / 161020.010.8 0.523.021.522.0
2016-Jul-15 18:00N 26°36' W 130°12'18915.8 040 / 141021.010.8 0.520.018.4
2016-Jul-15 06:00N 25°48' W 126°48'3015.9 060 / 131020.010.8 1.520.018.4
2016-Jul-15 04:08N 25°44' W 126°15'12616.0
2016-Jul-14 20:15N 25°08' W 124°02'17916.6
2016-Jul-14 09:27N 24°13' W 120°54'3715.7
2016-Jul-14 07:07N 24°02' W 120°16'2219.2
2016-Jul-14 06:00N 23°54' W 119°54'8215.1 030 / 121017.010.8 1.021.019.4
2016-Jul-14 00:33N 23°28' W 118°29'11617.7
2016-Jul-13 18:00N 22°48' W 116°30'19716.4 050 / 161015.010.8 1.022.020.5
2016-Jul-13 06:00N 21°36' W 113°12'39516.5 020 / 111014.010.8 0.523.021.5
2016-Jul-12 06:00N 19°06' W 106°42'   110 / 111012.010.8 0.528.026.6
2016-Jul-07 21:07N 08°60' W 079°35'0 0.5
2016-Jul-07 20:32N 08°60' W 079°36'1 1.4
2016-Jul-07 19:33N 09°01' W 079°37'4 1.8
2016-Jul-07 17:31N 09°03' W 079°39'6 6.1
2016-Jul-07 16:31N 09°07' W 079°44'5 5.4
2016-Jul-07 15:33N 09°09' W 079°49'8 7.7
2016-Jul-07 14:33N 09°13' W 079°55'3 3.0
2016-Jul-07 13:33N 09°16' W 079°55'0 0.4
2016-Jul-07 12:33N 09°17' W 079°55'2 1.9
2016-Jul-07 11:33N 09°19' W 079°55'5 5.1
2016-Jul-07 10:33N 09°24' W 079°55'5 4.5
2016-Jul-07 09:25N 09°29' W 079°57'0 0.1
2016-Jul-07 08:23N 09°29' W 079°57'0 0.1
2016-Jul-07 07:22N 09°29' W 079°57'0 0.1
2016-Jul-07 06:32N 09°29' W 079°57'0 0.1
2016-Jul-07 04:32N 09°29' W 079°57'0 0.0
2016-Jul-07 03:23N 09°29' W 079°57'0 0.0
2016-Jul-07 02:32N 09°29' W 079°57'0 0.0
2016-Jul-07 01:29N 09°29' W 079°57'0 0.1
2016-Jul-07 00:08N 09°29' W 079°57'0 0.0
2016-Jul-06 23:28N 09°29' W 079°57'0 0.1
2016-Jul-06 22:17N 09°29' W 079°57'0 0.1
2016-Jul-06 21:31N 09°29' W 079°57'0 0.0
2016-Jul-06 20:25N 09°29' W 079°57'0 0.1
2016-Jul-06 19:29N 09°29' W 079°57'0 0.1
2016-Jul-06 17:29N 09°29' W 079°57'0 0.0
2016-Jul-06 16:23N 09°29' W 079°57'0 0.0
2016-Jul-06 15:32N 09°29' W 079°57'0 0.2
2016-Jul-06 14:33N 09°29' W 079°57'7 6.8
2016-Jul-06 13:33N 09°23' W 079°54'0 0.4
2016-Jul-06 12:31N 09°22' W 079°53'0 0.0
2016-Jul-06 11:28N 09°22' W 079°53'0 0.0
2016-Jul-06 10:31N 09°22' W 079°53'0 0.0
2016-Jul-06 09:31N 09°22' W 079°53'0 0.0
2016-Jul-06 08:31N 09°22' W 079°53'0 0.0
2016-Jul-06 07:31N 09°22' W 079°53'0 0.0
2016-Jul-06 06:31N 09°22' W 079°53'0 0.0
2016-Jul-06 05:29N 09°22' W 079°53'0 0.0
2016-Jul-06 04:28N 09°22' W 079°53'0 0.0
2016-Jul-06 03:31N 09°22' W 079°53'0 0.0
2016-Jul-06 02:31N 09°22' W 079°53'0 0.0
2016-Jul-06 01:31N 09°22' W 079°53'0 0.0
2016-Jul-06 00:33N 09°22' W 079°53'  
Track history (hours):
 
Tides and Currents Weather Stations Pressure Air Temp Water Temp Dewpoint Dewpoint Depression Visibility Wind Speed Wind Dir Waves Ship Positions

Ever Develop

Last reported at 2016-Jul-16 00:00 UTC. Time now 2016-Jul-26 19:49 UTC.
Position N 27°06' W 132°00'.
Warning: this ship's position is 10 days out of date.

Type: Ship (hazmat cat D). MMSI: 356391000.

Wind from 070 at 16 knots

Waves 0.5 meters (2 feet), 3 second period

Barometer 1020.0 mb
Air temperature 23.0 ° C
Visibility: greater than 10.8 NM
Dewpoint 21.5 ° C
Water temperature 22.0 ° C

Date/timePositionNaut miles runAvg speedWind from/ knotsBaromVisibWave heightAir tempDewpointWater temp
2016-Jul-16 00:00N 27°06' W 132°00'10116.8 070 / 161020.010.8 0.523.021.522.0
2016-Jul-15 18:00N 26°36' W 130°12'18915.8 040 / 141021.010.8 0.520.018.4
2016-Jul-15 06:00N 25°48' W 126°48'3015.9 060 / 131020.010.8 1.520.018.4
2016-Jul-15 04:08N 25°44' W 126°15'12616.0
2016-Jul-14 20:15N 25°08' W 124°02'17916.6
2016-Jul-14 09:27N 24°13' W 120°54'3715.7
2016-Jul-14 07:07N 24°02' W 120°16'2219.2
2016-Jul-14 06:00N 23°54' W 119°54'8215.1 030 / 121017.010.8 1.021.019.4
2016-Jul-14 00:33N 23°28' W 118°29'11617.7
2016-Jul-13 18:00N 22°48' W 116°30'19716.4 050 / 161015.010.8 1.022.020.5
2016-Jul-13 06:00N 21°36' W 113°12'39516.5 020 / 111014.010.8 0.523.021.5
2016-Jul-12 06:00N 19°06' W 106°42'   110 / 111012.010.8 0.528.026.6
2016-Jul-07 21:07N 08°60' W 079°35'0 0.5
2016-Jul-07 20:32N 08°60' W 079°36'1 1.4
2016-Jul-07 19:33N 09°01' W 079°37'4 1.8
2016-Jul-07 17:31N 09°03' W 079°39'6 6.1
2016-Jul-07 16:31N 09°07' W 079°44'5 5.4
2016-Jul-07 15:33N 09°09' W 079°49'8 7.7
2016-Jul-07 14:33N 09°13' W 079°55'3 3.0
2016-Jul-07 13:33N 09°16' W 079°55'0 0.4
2016-Jul-07 12:33N 09°17' W 079°55'2 1.9
2016-Jul-07 11:33N 09°19' W 079°55'5 5.1
2016-Jul-07 10:33N 09°24' W 079°55'5 4.5
2016-Jul-07 09:25N 09°29' W 079°57'0 0.1
2016-Jul-07 08:23N 09°29' W 079°57'0 0.1
2016-Jul-07 07:22N 09°29' W 079°57'0 0.1
2016-Jul-07 06:32N 09°29' W 079°57'0 0.1
2016-Jul-07 04:32N 09°29' W 079°57'0 0.0
2016-Jul-07 03:23N 09°29' W 079°57'0 0.0
2016-Jul-07 02:32N 09°29' W 079°57'0 0.0
2016-Jul-07 01:29N 09°29' W 079°57'0 0.1
2016-Jul-07 00:08N 09°29' W 079°57'0 0.0
2016-Jul-06 23:28N 09°29' W 079°57'0 0.1
2016-Jul-06 22:17N 09°29' W 079°57'0 0.1
2016-Jul-06 21:31N 09°29' W 079°57'0 0.0
2016-Jul-06 20:25N 09°29' W 079°57'0 0.1
2016-Jul-06 19:29N 09°29' W 079°57'0 0.1
2016-Jul-06 17:29N 09°29' W 079°57'0 0.0
2016-Jul-06 16:23N 09°29' W 079°57'0 0.0
2016-Jul-06 15:32N 09°29' W 079°57'0 0.2
2016-Jul-06 14:33N 09°29' W 079°57'7 6.8
2016-Jul-06 13:33N 09°23' W 079°54'0 0.4
2016-Jul-06 12:31N 09°22' W 079°53'0 0.0
2016-Jul-06 11:28N 09°22' W 079°53'0 0.0
2016-Jul-06 10:31N 09°22' W 079°53'0 0.0
2016-Jul-06 09:31N 09°22' W 079°53'0 0.0
2016-Jul-06 08:31N 09°22' W 079°53'0 0.0
2016-Jul-06 07:31N 09°22' W 079°53'0 0.0
2016-Jul-06 06:31N 09°22' W 079°53'0 0.0
2016-Jul-06 05:29N 09°22' W 079°53'0 0.0
2016-Jul-06 04:28N 09°22' W 079°53'0 0.0
2016-Jul-06 03:31N 09°22' W 079°53'0 0.0
2016-Jul-06 02:31N 09°22' W 079°53'0 0.0
2016-Jul-06 01:31N 09°22' W 079°53'0 0.0
2016-Jul-06 00:33N 09°22' W 079°53'  

Dump ship's entire track history